Página principal
METAR-TAF:

METAR-TAF

Aeroportos :

Aeroporto Internacional do Bahrain

Bahrein, Bahrein

latitude: 26-16N, longitude: 050-39E, altura: 2 m

Observação actual do tempo

O boletim foi feito há 29 minutos, às 13:30 UTC
Vento 6 kt de es-nordeste, variando entre nor-nordeste e este
Temperatura 33°C
Humidade 49%
Pressão 1013 hPa
Visibilidade 10 km ou mais
sem nuvens abaixo de 1500 metros e sem cumulonimbus

METAR: OBBI 171330Z 06006KT 030V090 CAVOK 33/21 Q1013 NOSIG

Hora: 16:59 (13:59 UTC)

Previsão

O boletim foi feito há 2 horas e 59 minutos, às 11:00 UTC
Previsão válida de 17 às 12 UTC a 18 às 18 UTC
Vento 5 kt com direcção variável
Visibilidade 10 km ou mais
Poucas nuvensa uma altura de 3000 ft
Probabilidade 30% :
Temporariamente
de 17 às 22 UTC a 18 às 05 UTC
Visibilidade: 5000 m
bruma

TAF: OBBI 171100Z 1712/1818 VRB05KT 9999 FEW030 PROB30 TEMPO 1722/1805 5000 HZ

Observações e previsões do tempo de mais de 4000 aeroportos (mensagens METAR e TAF).

As estações disponíveis são os pontos amarelos e vermelhos sobre o mapa.

Mova o rato sobre o mapa para ver o nome da estação.

Depois clique no ponto para visualizar as observações e previsões meteorológicas.

Para alterar o mapa : clique nos botões verdes com uma cruz preta para aumentar o zoom; no botão verde com uma pitada de zoom; ou nas setas verdes para mapas adjacentes.


METAR-TAF: